首页
METAR-TAF:

METAR-TAF

机场 :

汶萊國際機場

文莱, 文莱

纬度: 04-56N, 经度: 114-56E, 海拔: 22米

当前天气观测

该预报发布于32分钟前的23:30 UTC
风速2节,风向西南
温度 27°C
湿度 89%
气压 1010 hPa
能见度10公里或以上
少量云层高于1400英尺
少量云层高于1500英尺, 积雨云.
多云层高于30000英尺
雷暴

METAR: WBSB 242330Z 22002KT 9999 TS FEW014 FEW015CB BKN300 27/25 Q1010 NOSIG

时间: 08:02 (00:02 UTC)

预报

该预报发布于1小时和12分钟前的22:50 UTC
预报有效从25日的 00点(UTC)到 26日的 06点(UTC)
风速3节,风向南转西南
能见度10公里或以上
少量云层高于1400英尺
少量云层高于1500英尺, 积雨云.
成为
从 25日的 03点(UTC)到 25日的 05点(UTC)
风速10节,风向西北
少量云层高于1600英尺
少量云层高于1700英尺, 积雨云.

TAF: WBSB 242250Z 2500/2606 20003KT 9999 FEW014 FEW015CB BECMG 2503/2505 32010KT FEW016 FEW017CB

超过4000个机场的气象观测和天气预报(METAR&TAF报告)。

可查询的气象台以黄色和红色小点在地图上表示。

将鼠标移到小点上方,可查看气象台名称。

然后点击查看天气观测和预报。

如需切换地图:点击带黑十字的绿色按钮放大地图;点击带横线的绿色按钮缩小地图;或者点击绿色箭头查看邻近地区的地图。


METAR-TAF: